sensor_id;sensor_type;location;lat;lon;timestamp;pressure;altitude;pressure_sealevel;temperature;humidity
55079;BME280;55187;49.496;6.010;2022-07-04T00:01:13;97846.78;;;10.31;96.18
55079;BME280;55187;49.496;6.010;2022-07-04T00:03:39;97850.09;;;10.25;96.40
55079;BME280;55187;49.496;6.010;2022-07-04T00:06:05;97841.16;;;10.26;96.55
55079;BME280;55187;49.496;6.010;2022-07-04T00:08:32;97849.63;;;10.21;96.41
55079;BME280;55187;49.496;6.010;2022-07-04T00:10:58;97849.28;;;10.24;96.53
55079;BME280;55187;49.496;6.010;2022-07-04T00:13:24;97850.59;;;10.28;96.95
55079;BME280;55187;49.496;6.010;2022-07-04T00:15:51;97847.47;;;10.25;96.63
55079;BME280;55187;49.496;6.010;2022-07-04T00:18:17;97847.19;;;10.20;96.70
55079;BME280;55187;49.496;6.010;2022-07-04T00:20:43;97850.47;;;10.22;96.97
55079;BME280;55187;49.496;6.010;2022-07-04T00:23:10;97850.22;;;10.08;97.63
55079;BME280;55187;49.496;6.010;2022-07-04T00:25:36;97843.13;;;10.09;97.61
55079;BME280;55187;49.496;6.010;2022-07-04T00:28:02;97849.31;;;10.01;98.06
55079;BME280;55187;49.496;6.010;2022-07-04T00:30:29;97842.84;;;10.04;98.10
55079;BME280;55187;49.496;6.010;2022-07-04T00:32:55;97847.34;;;9.95;98.08
55079;BME280;55187;49.496;6.010;2022-07-04T00:35:21;97849.22;;;9.86;98.87
55079;BME280;55187;49.496;6.010;2022-07-04T00:37:48;97834.13;;;9.95;98.82
55079;BME280;55187;49.496;6.010;2022-07-04T00:40:14;97843.78;;;9.88;98.78
55079;BME280;55187;49.496;6.010;2022-07-04T00:42:41;97833.69;;;9.92;99.21
55079;BME280;55187;49.496;6.010;2022-07-04T00:45:08;97840.03;;;9.82;98.99
55079;BME280;55187;49.496;6.010;2022-07-04T00:47:34;97840.66;;;9.84;99.67
55079;BME280;55187;49.496;6.010;2022-07-04T00:50:01;97841.09;;;9.73;99.84
55079;BME280;55187;49.496;6.010;2022-07-04T00:52:28;97836.78;;;9.72;100.00
55079;BME280;55187;49.496;6.010;2022-07-04T00:54:54;97840.06;;;9.74;100.00
55079;BME280;55187;49.496;6.010;2022-07-04T00:57:20;97838.97;;;9.69;100.00
55079;BME280;55187;49.496;6.010;2022-07-04T00:59:47;97840.88;;;9.75;100.00
55079;BME280;55187;49.496;6.010;2022-07-04T01:02:14;97846.16;;;9.75;100.00
55079;BME280;55187;49.496;6.010;2022-07-04T01:04:40;97853.16;;;9.68;100.00
55079;BME280;55187;49.496;6.010;2022-07-04T01:07:07;97842.22;;;9.71;100.00
55079;BME280;55187;49.496;6.010;2022-07-04T01:09:34;97850.47;;;9.76;100.00
55079;BME280;55187;49.496;6.010;2022-07-04T01:12:00;97844.81;;;9.56;100.00
55079;BME280;55187;49.496;6.010;2022-07-04T01:14:27;97863.34;;;9.48;100.00
55079;BME280;55187;49.496;6.010;2022-07-04T01:16:53;97856.06;;;9.50;100.00
55079;BME280;55187;49.496;6.010;2022-07-04T01:19:19;97851.94;;;9.47;100.00
55079;BME280;55187;49.496;6.010;2022-07-04T01:21:46;97867.34;;;9.43;100.00
55079;BME280;55187;49.496;6.010;2022-07-04T01:24:13;97867.50;;;9.42;100.00
55079;BME280;55187;49.496;6.010;2022-07-04T01:26:39;97872.00;;;9.33;100.00
55079;BME280;55187;49.496;6.010;2022-07-04T01:29:06;97871.00;;;9.34;100.00
55079;BME280;55187;49.496;6.010;2022-07-04T01:31:32;97873.78;;;9.41;100.00
55079;BME280;55187;49.496;6.010;2022-07-04T01:33:58;97878.38;;;9.47;100.00
55079;BME280;55187;49.496;6.010;2022-07-04T01:36:25;97873.13;;;9.39;100.00
55079;BME280;55187;49.496;6.010;2022-07-04T01:38:51;97885.19;;;9.41;100.00
55079;BME280;55187;49.496;6.010;2022-07-04T01:41:17;97877.47;;;9.23;100.00
55079;BME280;55187;49.496;6.010;2022-07-04T01:43:44;97878.78;;;9.28;100.00
55079;BME280;55187;49.496;6.010;2022-07-04T01:46:10;97887.22;;;9.23;100.00
55079;BME280;55187;49.496;6.010;2022-07-04T01:48:36;97891.84;;;9.21;100.00
55079;BME280;55187;49.496;6.010;2022-07-04T01:51:02;97890.97;;;9.37;100.00
55079;BME280;55187;49.496;6.010;2022-07-04T01:53:29;97883.38;;;9.34;100.00
55079;BME280;55187;49.496;6.010;2022-07-04T01:55:55;97898.44;;;9.25;100.00
55079;BME280;55187;49.496;6.010;2022-07-04T01:58:21;97889.53;;;9.26;100.00
55079;BME280;55187;49.496;6.010;2022-07-04T02:00:48;97895.44;;;9.28;100.00
55079;BME280;55187;49.496;6.010;2022-07-04T02:03:26;97883.56;;;9.32;100.00
55079;BME280;55187;49.496;6.010;2022-07-04T02:05:53;97889.81;;;9.31;100.00
55079;BME280;55187;49.496;6.010;2022-07-04T02:08:19;97877.34;;;9.17;100.00
55079;BME280;55187;49.496;6.010;2022-07-04T02:10:46;97885.09;;;9.18;100.00
55079;BME280;55187;49.496;6.010;2022-07-04T02:13:12;97893.19;;;9.17;100.00
55079;BME280;55187;49.496;6.010;2022-07-04T02:15:41;97891.34;;;9.26;100.00
55079;BME280;55187;49.496;6.010;2022-07-04T02:18:10;97882.94;;;9.22;100.00
55079;BME280;55187;49.496;6.010;2022-07-04T02:20:37;97880.00;;;9.09;100.00
55079;BME280;55187;49.496;6.010;2022-07-04T02:23:05;97884.13;;;9.11;100.00
55079;BME280;55187;49.496;6.010;2022-07-04T02:25:32;97889.44;;;9.03;100.00
55079;BME280;55187;49.496;6.010;2022-07-04T02:27:58;97881.34;;;9.05;100.00
55079;BME280;55187;49.496;6.010;2022-07-04T02:30:25;97887.28;;;9.07;100.00
55079;BME280;55187;49.496;6.010;2022-07-04T02:32:51;97881.66;;;9.10;100.00
55079;BME280;55187;49.496;6.010;2022-07-04T02:35:17;97878.56;;;8.98;100.00
55079;BME280;55187;49.496;6.010;2022-07-04T02:37:44;97881.66;;;9.01;100.00
55079;BME280;55187;49.496;6.010;2022-07-04T02:40:10;97874.59;;;9.02;100.00
55079;BME280;55187;49.496;6.010;2022-07-04T02:42:37;97874.25;;;8.97;100.00
55079;BME280;55187;49.496;6.010;2022-07-04T02:45:04;97870.28;;;9.09;100.00
55079;BME280;55187;49.496;6.010;2022-07-04T02:47:31;97876.53;;;9.08;100.00
55079;BME280;55187;49.496;6.010;2022-07-04T02:49:58;97869.94;;;9.04;100.00
55079;BME280;55187;49.496;6.010;2022-07-04T02:52:24;97872.47;;;8.97;100.00
55079;BME280;55187;49.496;6.010;2022-07-04T02:54:50;97868.84;;;8.90;100.00
55079;BME280;55187;49.496;6.010;2022-07-04T02:57:20;97868.97;;;8.97;100.00
55079;BME280;55187;49.496;6.010;2022-07-04T02:59:46;97868.31;;;8.95;100.00
55079;BME280;55187;49.496;6.010;2022-07-04T03:02:12;97860.75;;;8.92;100.00
55079;BME280;55187;49.496;6.010;2022-07-04T03:04:39;97870.81;;;8.96;100.00
55079;BME280;55187;49.496;6.010;2022-07-04T03:07:07;97873.13;;;8.91;100.00
55079;BME280;55187;49.496;6.010;2022-07-04T03:09:34;97878.94;;;8.78;100.00
55079;BME280;55187;49.496;6.010;2022-07-04T03:12:01;97879.63;;;8.72;100.00
55079;BME280;55187;49.496;6.010;2022-07-04T03:14:27;97882.91;;;8.74;100.00
55079;BME280;55187;49.496;6.010;2022-07-04T03:16:53;97884.34;;;8.85;100.00
55079;BME280;55187;49.496;6.010;2022-07-04T03:19:20;97890.78;;;8.82;100.00
55079;BME280;55187;49.496;6.010;2022-07-04T03:21:46;97890.16;;;8.72;100.00
55079;BME280;55187;49.496;6.010;2022-07-04T03:24:12;97884.91;;;8.72;100.00
55079;BME280;55187;49.496;6.010;2022-07-04T03:26:39;97888.19;;;8.66;100.00
55079;BME280;55187;49.496;6.010;2022-07-04T03:29:05;97884.75;;;8.66;100.00
55079;BME280;55187;49.496;6.010;2022-07-04T03:31:31;97890.34;;;8.71;100.00
55079;BME280;55187;49.496;6.010;2022-07-04T03:33:58;97891.97;;;8.72;100.00
55079;BME280;55187;49.496;6.010;2022-07-04T03:36:24;97889.81;;;8.67;100.00
55079;BME280;55187;49.496;6.010;2022-07-04T03:38:50;97885.91;;;8.63;100.00
55079;BME280;55187;49.496;6.010;2022-07-04T03:41:16;97879.47;;;8.57;100.00
55079;BME280;55187;49.496;6.010;2022-07-04T03:43:43;97893.63;;;8.65;100.00
55079;BME280;55187;49.496;6.010;2022-07-04T03:46:09;97897.91;;;8.74;100.00
55079;BME280;55187;49.496;6.010;2022-07-04T03:48:35;97896.91;;;8.67;100.00
55079;BME280;55187;49.496;6.010;2022-07-04T03:51:02;97899.56;;;8.67;100.00
55079;BME280;55187;49.496;6.010;2022-07-04T03:53:28;97900.06;;;8.70;100.00
55079;BME280;55187;49.496;6.010;2022-07-04T03:55:55;97912.75;;;8.75;100.00
55079;BME280;55187;49.496;6.010;2022-07-04T03:58:21;97911.44;;;8.71;100.00
55079;BME280;55187;49.496;6.010;2022-07-04T04:00:48;97909.13;;;8.68;100.00
55079;BME280;55187;49.496;6.010;2022-07-04T04:03:14;97910.13;;;8.75;100.00
55079;BME280;55187;49.496;6.010;2022-07-04T04:05:44;97909.31;;;8.74;100.00
55079;BME280;55187;49.496;6.010;2022-07-04T04:08:10;97908.28;;;8.84;100.00
55079;BME280;55187;49.496;6.010;2022-07-04T04:10:36;97908.59;;;8.80;100.00
55079;BME280;55187;49.496;6.010;2022-07-04T04:13:02;97908.94;;;8.86;100.00
55079;BME280;55187;49.496;6.010;2022-07-04T04:15:29;97907.47;;;8.75;100.00
55079;BME280;55187;49.496;6.010;2022-07-04T04:17:55;97909.13;;;8.84;100.00
55079;BME280;55187;49.496;6.010;2022-07-04T04:20:21;97917.53;;;8.79;100.00
55079;BME280;55187;49.496;6.010;2022-07-04T04:22:47;97917.19;;;8.82;100.00
55079;BME280;55187;49.496;6.010;2022-07-04T04:25:17;97914.03;;;8.95;100.00
55079;BME280;55187;49.496;6.010;2022-07-04T04:27:43;97918.16;;;8.98;100.00
55079;BME280;55187;49.496;6.010;2022-07-04T04:30:10;97919.97;;;8.97;100.00
55079;BME280;55187;49.496;6.010;2022-07-04T04:32:36;97919.63;;;8.92;100.00
55079;BME280;55187;49.496;6.010;2022-07-04T04:35:03;97919.31;;;8.87;100.00
55079;BME280;55187;49.496;6.010;2022-07-04T04:37:29;97918.50;;;8.87;100.00
55079;BME280;55187;49.496;6.010;2022-07-04T04:39:56;97927.41;;;8.86;100.00
55079;BME280;55187;49.496;6.010;2022-07-04T04:42:22;97929.53;;;8.90;100.00
55079;BME280;55187;49.496;6.010;2022-07-04T04:44:49;97923.94;;;8.93;100.00
55079;BME280;55187;49.496;6.010;2022-07-04T04:47:15;97933.81;;;8.99;100.00
55079;BME280;55187;49.496;6.010;2022-07-04T04:49:41;97931.50;;;9.05;100.00
55079;BME280;55187;49.496;6.010;2022-07-04T04:52:08;97925.22;;;9.06;100.00
55079;BME280;55187;49.496;6.010;2022-07-04T04:54:36;97934.63;;;9.08;100.00
55079;BME280;55187;49.496;6.010;2022-07-04T04:57:05;97939.72;;;9.18;100.00
55079;BME280;55187;49.496;6.010;2022-07-04T04:59:32;97946.66;;;9.19;100.00
55079;BME280;55187;49.496;6.010;2022-07-04T05:01:59;97947.47;;;9.19;100.00
55079;BME280;55187;49.496;6.010;2022-07-04T05:04:26;97945.63;;;9.28;100.00
55079;BME280;55187;49.496;6.010;2022-07-04T05:06:52;97953.41;;;9.30;100.00
55079;BME280;55187;49.496;6.010;2022-07-04T05:09:23;97947.25;;;9.37;100.00
55079;BME280;55187;49.496;6.010;2022-07-04T05:12:00;97943.75;;;9.45;100.00
55079;BME280;55187;49.496;6.010;2022-07-04T05:14:26;97945.22;;;9.48;100.00
55079;BME280;55187;49.496;6.010;2022-07-04T05:16:53;97948.19;;;9.53;100.00
55079;BME280;55187;49.496;6.010;2022-07-04T05:19:19;97944.56;;;9.54;100.00
55079;BME280;55187;49.496;6.010;2022-07-04T05:21:46;97948.97;;;9.61;100.00
55079;BME280;55187;49.496;6.010;2022-07-04T05:24:12;97947.94;;;9.71;100.00
55079;BME280;55187;49.496;6.010;2022-07-04T05:26:38;97952.91;;;9.74;100.00
55079;BME280;55187;49.496;6.010;2022-07-04T05:29:05;97944.34;;;9.95;100.00
55079;BME280;55187;49.496;6.010;2022-07-04T05:31:31;97953.88;;;10.04;100.00
55079;BME280;55187;49.496;6.010;2022-07-04T05:33:58;97950.72;;;10.08;100.00
55079;BME280;55187;49.496;6.010;2022-07-04T05:36:25;97943.97;;;10.06;100.00
55079;BME280;55187;49.496;6.010;2022-07-04T05:38:51;97948.50;;;10.20;100.00
55079;BME280;55187;49.496;6.010;2022-07-04T05:41:18;97945.84;;;10.28;100.00
55079;BME280;55187;49.496;6.010;2022-07-04T05:43:44;97950.94;;;10.30;100.00
55079;BME280;55187;49.496;6.010;2022-07-04T05:46:10;97935.72;;;10.32;100.00
55079;BME280;55187;49.496;6.010;2022-07-04T05:48:37;97948.94;;;10.55;100.00
55079;BME280;55187;49.496;6.010;2022-07-04T05:51:04;97939.69;;;10.51;100.00
55079;BME280;55187;49.496;6.010;2022-07-04T05:53:30;97945.47;;;10.55;100.00
55079;BME280;55187;49.496;6.010;2022-07-04T05:55:57;97942.09;;;10.99;100.00
55079;BME280;55187;49.496;6.010;2022-07-04T05:58:24;97936.94;;;13.22;98.69
55079;BME280;55187;49.496;6.010;2022-07-04T06:00:50;97929.16;;;16.72;83.30
55079;BME280;55187;49.496;6.010;2022-07-04T06:03:17;97944.38;;;18.44;72.33
55079;BME280;55187;49.496;6.010;2022-07-04T06:05:43;97937.41;;;19.96;66.16
55079;BME280;55187;49.496;6.010;2022-07-04T06:08:10;97937.72;;;21.03;60.75
55079;BME280;55187;49.496;6.010;2022-07-04T06:10:36;97944.03;;;22.35;56.06
55079;BME280;55187;49.496;6.010;2022-07-04T06:13:03;97937.56;;;23.81;50.32
55079;BME280;55187;49.496;6.010;2022-07-04T06:15:30;97940.44;;;24.32;49.44
55079;BME280;55187;49.496;6.010;2022-07-04T06:17:57;97929.69;;;24.53;48.63
55079;BME280;55187;49.496;6.010;2022-07-04T06:20:23;97935.09;;;24.99;46.97
55079;BME280;55187;49.496;6.010;2022-07-04T06:22:50;97929.63;;;25.40;46.35
55079;BME280;55187;49.496;6.010;2022-07-04T06:25:18;97929.78;;;25.89;44.66
55079;BME280;55187;49.496;6.010;2022-07-04T06:27:46;97932.91;;;25.16;45.48
55079;BME280;55187;49.496;6.010;2022-07-04T06:30:13;97929.66;;;25.09;46.18
55079;BME280;55187;49.496;6.010;2022-07-04T06:32:42;97925.66;;;25.97;45.45
55079;BME280;55187;49.496;6.010;2022-07-04T06:35:10;97927.22;;;25.33;45.91
55079;BME280;55187;49.496;6.010;2022-07-04T06:37:49;97931.59;;;27.23;42.22
55079;BME280;55187;49.496;6.010;2022-07-04T06:40:20;97938.84;;;26.98;41.24
55079;BME280;55187;49.496;6.010;2022-07-04T06:42:47;97935.25;;;27.37;40.92
55079;BME280;55187;49.496;6.010;2022-07-04T06:45:14;97939.00;;;26.83;42.49
55079;BME280;55187;49.496;6.010;2022-07-04T06:47:40;97948.63;;;26.15;43.77
55079;BME280;55187;49.496;6.010;2022-07-04T06:50:08;97933.34;;;27.37;41.71
55079;BME280;55187;49.496;6.010;2022-07-04T06:52:34;97941.41;;;27.96;39.15
55079;BME280;55187;49.496;6.010;2022-07-04T06:55:05;97935.56;;;28.27;39.65
55079;BME280;55187;49.496;6.010;2022-07-04T06:57:31;97934.31;;;26.04;43.61
55079;BME280;55187;49.496;6.010;2022-07-04T06:59:57;97946.31;;;27.70;41.27
55079;BME280;55187;49.496;6.010;2022-07-04T07:02:24;97939.56;;;27.91;41.01
55079;BME280;55187;49.496;6.010;2022-07-04T07:04:50;97953.34;;;28.95;39.19
55079;BME280;55187;49.496;6.010;2022-07-04T07:07:16;97945.78;;;29.05;38.79
55079;BME280;55187;49.496;6.010;2022-07-04T07:09:42;97956.31;;;28.79;39.63
55079;BME280;55187;49.496;6.010;2022-07-04T07:12:09;97950.78;;;28.84;39.67
55079;BME280;55187;49.496;6.010;2022-07-04T07:14:35;97961.28;;;28.15;40.94
55079;BME280;55187;49.496;6.010;2022-07-04T07:17:02;97954.63;;;28.83;39.57
55079;BME280;55187;49.496;6.010;2022-07-04T07:19:28;97957.25;;;29.54;38.53
55079;BME280;55187;49.496;6.010;2022-07-04T07:21:55;97951.88;;;29.49;38.15
55079;BME280;55187;49.496;6.010;2022-07-04T07:24:21;97955.13;;;30.93;33.46
55079;BME280;55187;49.496;6.010;2022-07-04T07:26:49;97954.72;;;29.58;35.73
55079;BME280;55187;49.496;6.010;2022-07-04T07:29:16;97958.38;;;28.88;36.23
55079;BME280;55187;49.496;6.010;2022-07-04T07:31:42;97959.59;;;31.11;35.28
55079;BME280;55187;49.496;6.010;2022-07-04T07:34:08;97957.16;;;28.94;37.12
55079;BME280;55187;49.496;6.010;2022-07-04T07:36:38;97958.19;;;30.05;37.23
55079;BME280;55187;49.496;6.010;2022-07-04T07:39:05;97956.97;;;28.71;38.95
55079;BME280;55187;49.496;6.010;2022-07-04T07:41:31;97955.34;;;29.08;39.10
55079;BME280;55187;49.496;6.010;2022-07-04T07:43:57;97954.84;;;29.80;33.72
55079;BME280;55187;49.496;6.010;2022-07-04T07:46:24;97954.44;;;30.01;34.10
55079;BME280;55187;49.496;6.010;2022-07-04T07:48:50;97957.13;;;31.32;33.37
55079;BME280;55187;49.496;6.010;2022-07-04T07:51:16;97954.00;;;30.21;36.37
55079;BME280;55187;49.496;6.010;2022-07-04T07:53:43;97961.50;;;30.02;36.37
55079;BME280;55187;49.496;6.010;2022-07-04T07:56:09;97953.84;;;30.54;33.41
55079;BME280;55187;49.496;6.010;2022-07-04T07:58:36;97959.44;;;31.17;34.27
55079;BME280;55187;49.496;6.010;2022-07-04T08:01:02;97961.06;;;30.36;34.52
55079;BME280;55187;49.496;6.010;2022-07-04T08:03:28;97962.03;;;30.54;31.36
55079;BME280;55187;49.496;6.010;2022-07-04T08:06:07;97957.25;;;30.82;31.90
55079;BME280;55187;49.496;6.010;2022-07-04T08:08:36;97955.94;;;32.71;29.30
55079;BME280;55187;49.496;6.010;2022-07-04T08:11:04;97939.81;;;30.69;29.83
55079;BME280;55187;49.496;6.010;2022-07-04T08:13:31;97952.97;;;29.34;34.62
55079;BME280;55187;49.496;6.010;2022-07-04T08:15:57;97945.78;;;31.17;31.07
55079;BME280;55187;49.496;6.010;2022-07-04T08:18:23;97934.28;;;31.06;32.22
55079;BME280;55187;49.496;6.010;2022-07-04T08:20:50;97937.00;;;29.41;33.38
55079;BME280;55187;49.496;6.010;2022-07-04T08:23:16;97936.03;;;29.79;34.93
55079;BME280;55187;49.496;6.010;2022-07-04T08:25:43;97942.91;;;31.22;31.32
55079;BME280;55187;49.496;6.010;2022-07-04T08:28:10;97931.22;;;28.96;35.73
55079;BME280;55187;49.496;6.010;2022-07-04T08:30:36;97933.22;;;29.70;32.95
55079;BME280;55187;49.496;6.010;2022-07-04T08:33:02;97939.25;;;30.08;33.60
55079;BME280;55187;49.496;6.010;2022-07-04T08:35:29;97937.13;;;30.78;30.66
55079;BME280;55187;49.496;6.010;2022-07-04T08:37:55;97926.19;;;30.78;30.58
55079;BME280;55187;49.496;6.010;2022-07-04T08:40:23;97935.53;;;29.90;30.74
55079;BME280;55187;49.496;6.010;2022-07-04T08:42:49;97934.47;;;28.98;32.25
55079;BME280;55187;49.496;6.010;2022-07-04T08:45:17;97931.78;;;30.50;32.80
55079;BME280;55187;49.496;6.010;2022-07-04T08:47:50;97926.94;;;29.97;31.79
55079;BME280;55187;49.496;6.010;2022-07-04T08:50:31;97928.91;;;30.19;34.28
55079;BME280;55187;49.496;6.010;2022-07-04T08:53:11;97928.84;;;31.37;30.25
55079;BME280;55187;49.496;6.010;2022-07-04T08:55:39;97927.66;;;30.03;34.39
55079;BME280;55187;49.496;6.010;2022-07-04T08:58:18;97936.06;;;27.91;36.02
55079;BME280;55187;49.496;6.010;2022-07-04T09:01:02;97933.81;;;27.93;32.59
55079;BME280;55187;49.496;6.010;2022-07-04T09:03:31;97936.50;;;27.98;36.31
55079;BME280;55187;49.496;6.010;2022-07-04T09:05:58;97938.50;;;28.68;33.95
55079;BME280;55187;49.496;6.010;2022-07-04T09:08:25;97929.28;;;27.35;34.73
55079;BME280;55187;49.496;6.010;2022-07-04T09:10:52;97925.31;;;29.41;31.22
55079;BME280;55187;49.496;6.010;2022-07-04T09:13:20;97929.34;;;28.78;32.58
55079;BME280;55187;49.496;6.010;2022-07-04T09:15:48;97927.75;;;29.70;30.98
55079;BME280;55187;49.496;6.010;2022-07-04T09:18:35;97940.56;;;28.76;32.62
55079;BME280;55187;49.496;6.010;2022-07-04T09:21:05;97928.66;;;29.93;31.16
55079;BME280;55187;49.496;6.010;2022-07-04T09:23:42;97931.50;;;30.74;32.23
55079;BME280;55187;49.496;6.010;2022-07-04T09:26:10;97929.72;;;31.24;30.52
55079;BME280;55187;49.496;6.010;2022-07-04T09:28:40;97931.44;;;27.09;35.32
55079;BME280;55187;49.496;6.010;2022-07-04T09:31:21;97926.94;;;25.45;37.77
55079;BME280;55187;49.496;6.010;2022-07-04T09:33:51;97922.03;;;22.81;45.69
55079;BME280;55187;49.496;6.010;2022-07-04T09:36:20;97915.72;;;25.77;40.34
55079;BME280;55187;49.496;6.010;2022-07-04T09:39:04;97915.91;;;26.46;36.65
55079;BME280;55187;49.496;6.010;2022-07-04T09:41:52;97914.91;;;27.34;36.07
55079;BME280;55187;49.496;6.010;2022-07-04T09:44:20;97919.75;;;28.10;33.43
55079;BME280;55187;49.496;6.010;2022-07-04T09:46:47;97921.13;;;28.83;32.57
55079;BME280;55187;49.496;6.010;2022-07-04T09:49:14;97921.00;;;28.74;33.09
55079;BME280;55187;49.496;6.010;2022-07-04T09:51:48;97915.69;;;28.64;32.71
55079;BME280;55187;49.496;6.010;2022-07-04T09:54:20;97911.56;;;27.91;33.38
55079;BME280;55187;49.496;6.010;2022-07-04T09:56:50;97920.69;;;24.42;40.09
55079;BME280;55187;49.496;6.010;2022-07-04T09:59:21;97916.09;;;24.32;41.96
55079;BME280;55187;49.496;6.010;2022-07-04T10:01:48;97925.19;;;23.95;42.69
55079;BME280;55187;49.496;6.010;2022-07-04T10:04:15;97922.78;;;23.51;43.24
55079;BME280;55187;49.496;6.010;2022-07-04T10:06:44;97917.66;;;23.44;43.19
55079;BME280;55187;49.496;6.010;2022-07-04T10:09:14;97917.16;;;23.10;44.81
55079;BME280;55187;49.496;6.010;2022-07-04T10:11:42;97913.41;;;26.49;37.90
55079;BME280;55187;49.496;6.010;2022-07-04T10:14:11;97912.81;;;27.74;35.90
55079;BME280;55187;49.496;6.010;2022-07-04T10:16:38;97912.34;;;25.15;39.48
55079;BME280;55187;49.496;6.010;2022-07-04T10:19:07;97913.13;;;23.60;43.28
55079;BME280;55187;49.496;6.010;2022-07-04T10:21:34;97902.63;;;22.84;43.40
55079;BME280;55187;49.496;6.010;2022-07-04T10:24:01;97905.78;;;23.03;44.35
55079;BME280;55187;49.496;6.010;2022-07-04T10:26:30;97887.25;;;25.74;38.78
55079;BME280;55187;49.496;6.010;2022-07-04T10:28:57;97896.41;;;24.62;39.84
55079;BME280;55187;49.496;6.010;2022-07-04T10:31:25;97890.72;;;24.69;39.25
55079;BME280;55187;49.496;6.010;2022-07-04T10:33:53;97889.03;;;24.32;40.15
55079;BME280;55187;49.496;6.010;2022-07-04T10:36:22;97894.78;;;24.72;40.49
55079;BME280;55187;49.496;6.010;2022-07-04T10:38:55;97896.88;;;25.36;39.76
55079;BME280;55187;49.496;6.010;2022-07-04T10:41:23;97895.47;;;27.22;36.18
55079;BME280;55187;49.496;6.010;2022-07-04T10:44:05;97895.16;;;27.96;38.88
55079;BME280;55187;49.496;6.010;2022-07-04T10:46:38;97899.97;;;27.56;35.47
55079;BME280;55187;49.496;6.010;2022-07-04T10:49:19;97894.56;;;27.99;35.80
55079;BME280;55187;49.496;6.010;2022-07-04T10:51:48;97896.13;;;28.05;35.48
55079;BME280;55187;49.496;6.010;2022-07-04T10:54:22;97897.44;;;25.33;38.31
55079;BME280;55187;49.496;6.010;2022-07-04T10:56:55;97904.59;;;23.84;42.09
55079;BME280;55187;49.496;6.010;2022-07-04T10:59:27;97904.69;;;23.04;43.91
55079;BME280;55187;49.496;6.010;2022-07-04T11:02:24;97896.03;;;23.44;43.74
55079;BME280;55187;49.496;6.010;2022-07-04T11:04:54;97893.09;;;24.29;41.96
55079;BME280;55187;49.496;6.010;2022-07-04T11:07:55;97890.41;;;25.06;40.39
55079;BME280;55187;49.496;6.010;2022-07-04T11:10:21;97886.22;;;26.15;38.20
55079;BME280;55187;49.496;6.010;2022-07-04T11:15:57;97890.72;;;24.48;42.06
55079;BME280;55187;49.496;6.010;2022-07-04T11:18:25;97885.56;;;23.58;42.66
55079;BME280;55187;49.496;6.010;2022-07-04T11:20:53;97890.00;;;22.90;44.30
55079;BME280;55187;49.496;6.010;2022-07-04T11:23:19;97887.16;;;23.07;43.75
55079;BME280;55187;49.496;6.010;2022-07-04T11:25:47;97880.38;;;24.35;43.31
55079;BME280;55187;49.496;6.010;2022-07-04T11:28:26;97870.63;;;24.24;41.69
55079;BME280;55187;49.496;6.010;2022-07-04T11:30:56;97884.72;;;23.53;43.11
55079;BME280;55187;49.496;6.010;2022-07-04T11:33:25;97875.59;;;23.16;45.27
55079;BME280;55187;49.496;6.010;2022-07-04T11:36:05;97884.59;;;22.52;47.96
55079;BME280;55187;49.496;6.010;2022-07-04T11:38:45;97896.06;;;23.07;45.35
55079;BME280;55187;49.496;6.010;2022-07-04T11:41:13;97886.81;;;23.98;44.76
55079;BME280;55187;49.496;6.010;2022-07-04T11:44:08;97890.66;;;23.55;43.72
55079;BME280;55187;49.496;6.010;2022-07-04T11:46:47;97879.06;;;23.59;43.14
55079;BME280;55187;49.496;6.010;2022-07-04T11:49:13;97883.91;;;24.46;42.98
55079;BME280;55187;49.496;6.010;2022-07-04T11:51:43;97882.25;;;23.51;43.48
55079;BME280;55187;49.496;6.010;2022-07-04T11:54:10;97882.91;;;23.74;45.03
55079;BME280;55187;49.496;6.010;2022-07-04T11:56:37;97884.94;;;24.14;41.37
55079;BME280;55187;49.496;6.010;2022-07-04T12:01:36;97874.13;;;23.46;46.26
55079;BME280;55187;49.496;6.010;2022-07-04T12:04:15;97876.91;;;23.61;44.21
55079;BME280;55187;49.496;6.010;2022-07-04T12:06:44;97884.59;;;23.85;45.34
55079;BME280;55187;49.496;6.010;2022-07-04T12:09:11;97879.56;;;24.35;41.70
55079;BME280;55187;49.496;6.010;2022-07-04T12:11:53;97866.34;;;24.54;41.59
55079;BME280;55187;49.496;6.010;2022-07-04T12:14:20;97864.72;;;24.47;40.80
55079;BME280;55187;49.496;6.010;2022-07-04T12:16:47;97869.31;;;24.73;42.25
55079;BME280;55187;49.496;6.010;2022-07-04T12:19:13;97867.63;;;24.00;44.08
55079;BME280;55187;49.496;6.010;2022-07-04T12:21:42;97864.69;;;24.32;41.97
55079;BME280;55187;49.496;6.010;2022-07-04T12:24:09;97867.56;;;23.84;42.99
55079;BME280;55187;49.496;6.010;2022-07-04T12:26:44;97863.75;;;23.17;45.66
55079;BME280;55187;49.496;6.010;2022-07-04T12:29:20;97856.69;;;23.11;45.35
55079;BME280;55187;49.496;6.010;2022-07-04T12:31:51;97852.84;;;23.02;44.06
55079;BME280;55187;49.496;6.010;2022-07-04T12:34:19;97853.88;;;22.58;44.28
55079;BME280;55187;49.496;6.010;2022-07-04T12:36:51;97845.09;;;23.16;44.51
55079;BME280;55187;49.496;6.010;2022-07-04T12:42:06;97849.56;;;23.42;42.81
55079;BME280;55187;49.496;6.010;2022-07-04T12:44:33;97844.56;;;23.19;43.44
55079;BME280;55187;49.496;6.010;2022-07-04T12:47:04;97836.59;;;23.44;44.09
55079;BME280;55187;49.496;6.010;2022-07-04T12:49:32;97840.00;;;23.19;44.77
55079;BME280;55187;49.496;6.010;2022-07-04T12:52:06;97828.28;;;23.56;43.04
55079;BME280;55187;49.496;6.010;2022-07-04T12:54:33;97830.47;;;23.70;41.71
55079;BME280;55187;49.496;6.010;2022-07-04T12:57:12;97829.28;;;23.40;44.17
55079;BME280;55187;49.496;6.010;2022-07-04T12:59:39;97827.22;;;23.04;43.45
55079;BME280;55187;49.496;6.010;2022-07-04T13:02:07;97820.25;;;23.14;44.42
55079;BME280;55187;49.496;6.010;2022-07-04T13:04:34;97825.88;;;23.65;43.08
55079;BME280;55187;49.496;6.010;2022-07-04T13:07:13;97817.69;;;23.44;43.82
55079;BME280;55187;49.496;6.010;2022-07-04T13:09:42;97832.63;;;23.67;43.57
55079;BME280;55187;49.496;6.010;2022-07-04T13:12:10;97828.19;;;23.41;44.59
55079;BME280;55187;49.496;6.010;2022-07-04T13:14:40;97835.75;;;23.34;43.64